sensor_id;sensor_type;location;lat;lon;timestamp;P1;durP1;ratioP1;P2;durP2;ratioP2
71172;SDS011;58875;51.996;4.504;2022-08-04T00:01:28;3.87;;;3.87;;
71172;SDS011;58875;51.996;4.504;2022-08-04T00:04:07;3.63;;;3.63;;
71172;SDS011;58875;51.996;4.504;2022-08-04T00:06:47;3.81;;;3.81;;
71172;SDS011;58875;51.996;4.504;2022-08-04T00:09:26;3.87;;;3.87;;
71172;SDS011;58875;51.996;4.504;2022-08-04T00:12:00;3.87;;;3.87;;
71172;SDS011;58875;51.996;4.504;2022-08-04T00:14:28;3.88;;;3.88;;
71172;SDS011;58875;51.996;4.504;2022-08-04T00:17:01;4.02;;;4.02;;
71172;SDS011;58875;51.996;4.504;2022-08-04T00:19:40;3.82;;;3.82;;
71172;SDS011;58875;51.996;4.504;2022-08-04T00:22:09;3.64;;;3.64;;
71172;SDS011;58875;51.996;4.504;2022-08-04T00:24:37;3.59;;;3.59;;
71172;SDS011;58875;51.996;4.504;2022-08-04T00:27:06;3.82;;;3.82;;
71172;SDS011;58875;51.996;4.504;2022-08-04T00:29:33;3.80;;;3.80;;
71172;SDS011;58875;51.996;4.504;2022-08-04T00:31:59;4.06;;;4.06;;
71172;SDS011;58875;51.996;4.504;2022-08-04T00:34:28;3.84;;;3.84;;
71172;SDS011;58875;51.996;4.504;2022-08-04T00:36:58;3.63;;;3.63;;
71172;SDS011;58875;51.996;4.504;2022-08-04T00:39:23;4.07;;;4.07;;
71172;SDS011;58875;51.996;4.504;2022-08-04T00:44:56;3.91;;;3.91;;
71172;SDS011;58875;51.996;4.504;2022-08-04T00:47:55;3.90;;;3.90;;
71172;SDS011;58875;51.996;4.504;2022-08-04T00:54:00;3.97;;;3.97;;
71172;SDS011;58875;51.996;4.504;2022-08-04T01:04:38;4.21;;;4.21;;
71172;SDS011;58875;51.996;4.504;2022-08-04T01:07:31;3.98;;;3.98;;
71172;SDS011;58875;51.996;4.504;2022-08-04T01:15:48;3.83;;;3.83;;
71172;SDS011;58875;51.996;4.504;2022-08-04T01:21:26;4.07;;;4.07;;
71172;SDS011;58875;51.996;4.504;2022-08-04T01:29:20;4.24;;;4.24;;
71172;SDS011;58875;51.996;4.504;2022-08-04T01:35:01;4.57;;;4.57;;
71172;SDS011;58875;51.996;4.504;2022-08-04T01:40:14;4.84;;;4.84;;
71172;SDS011;58875;51.996;4.504;2022-08-04T01:42:41;4.53;;;4.53;;
71172;SDS011;58875;51.996;4.504;2022-08-04T01:45:12;4.07;;;4.07;;
71172;SDS011;58875;51.996;4.504;2022-08-04T01:47:51;4.41;;;4.41;;
71172;SDS011;58875;51.996;4.504;2022-08-04T01:50:19;4.51;;;4.49;;
71172;SDS011;58875;51.996;4.504;2022-08-04T01:52:47;4.31;;;4.30;;
71172;SDS011;58875;51.996;4.504;2022-08-04T01:55:16;4.18;;;4.18;;
71172;SDS011;58875;51.996;4.504;2022-08-04T01:57:43;4.16;;;4.16;;
71172;SDS011;58875;51.996;4.504;2022-08-04T02:00:17;4.19;;;4.19;;
71172;SDS011;58875;51.996;4.504;2022-08-04T02:02:50;4.55;;;4.55;;
71172;SDS011;58875;51.996;4.504;2022-08-04T02:05:17;4.47;;;4.47;;
71172;SDS011;58875;51.996;4.504;2022-08-04T02:13:43;4.45;;;4.45;;
71172;SDS011;58875;51.996;4.504;2022-08-04T02:16:22;4.65;;;4.65;;
71172;SDS011;58875;51.996;4.504;2022-08-04T02:18:59;4.59;;;4.59;;
71172;SDS011;58875;51.996;4.504;2022-08-04T02:21:31;4.88;;;4.88;;
71172;SDS011;58875;51.996;4.504;2022-08-04T02:24:04;4.72;;;4.72;;
71172;SDS011;58875;51.996;4.504;2022-08-04T02:26:33;4.85;;;4.85;;
71172;SDS011;58875;51.996;4.504;2022-08-04T02:29:16;4.70;;;4.70;;
71172;SDS011;58875;51.996;4.504;2022-08-04T02:31:48;4.70;;;4.70;;
71172;SDS011;58875;51.996;4.504;2022-08-04T02:36:47;4.50;;;4.50;;
71172;SDS011;58875;51.996;4.504;2022-08-04T02:39:18;4.80;;;4.80;;
71172;SDS011;58875;51.996;4.504;2022-08-04T02:41:45;4.28;;;4.28;;
71172;SDS011;58875;51.996;4.504;2022-08-04T02:44:13;4.40;;;4.40;;
71172;SDS011;58875;51.996;4.504;2022-08-04T02:46:46;4.69;;;4.69;;
71172;SDS011;58875;51.996;4.504;2022-08-04T02:49:14;4.75;;;4.75;;
71172;SDS011;58875;51.996;4.504;2022-08-04T02:51:46;4.65;;;4.65;;
71172;SDS011;58875;51.996;4.504;2022-08-04T02:54:16;4.33;;;4.33;;
71172;SDS011;58875;51.996;4.504;2022-08-04T02:56:47;4.55;;;4.55;;
71172;SDS011;58875;51.996;4.504;2022-08-04T02:59:16;4.67;;;4.67;;
71172;SDS011;58875;51.996;4.504;2022-08-04T03:01:47;4.49;;;4.49;;
71172;SDS011;58875;51.996;4.504;2022-08-04T03:26:22;4.50;;;4.50;;
71172;SDS011;58875;51.996;4.504;2022-08-04T03:45:53;4.75;;;4.75;;
71172;SDS011;58875;51.996;4.504;2022-08-04T03:51:18;4.80;;;4.80;;
71172;SDS011;58875;51.996;4.504;2022-08-04T04:00:08;4.89;;;4.89;;
71172;SDS011;58875;51.996;4.504;2022-08-04T04:17:29;4.81;;;4.81;;
71172;SDS011;58875;51.996;4.504;2022-08-04T04:26:03;4.79;;;4.79;;
71172;SDS011;58875;51.996;4.504;2022-08-04T04:54:13;3.63;;;3.63;;
71172;SDS011;58875;51.996;4.504;2022-08-04T04:59:37;3.25;;;3.25;;
71172;SDS011;58875;51.996;4.504;2022-08-04T05:02:36;3.24;;;3.24;;
71172;SDS011;58875;51.996;4.504;2022-08-04T05:10:58;3.11;;;3.11;;
71172;SDS011;58875;51.996;4.504;2022-08-04T05:13:36;2.97;;;2.97;;
71172;SDS011;58875;51.996;4.504;2022-08-04T05:16:13;2.95;;;2.95;;
71172;SDS011;58875;51.996;4.504;2022-08-04T05:18:46;2.81;;;2.81;;
71172;SDS011;58875;51.996;4.504;2022-08-04T05:21:29;2.91;;;2.90;;
71172;SDS011;58875;51.996;4.504;2022-08-04T05:24:20;2.69;;;2.69;;
71172;SDS011;58875;51.996;4.504;2022-08-04T05:26:55;2.81;;;2.81;;
71172;SDS011;58875;51.996;4.504;2022-08-04T05:32:00;2.72;;;2.72;;
71172;SDS011;58875;51.996;4.504;2022-08-04T05:34:34;2.58;;;2.58;;
71172;SDS011;58875;51.996;4.504;2022-08-04T05:37:10;2.70;;;2.66;;
71172;SDS011;58875;51.996;4.504;2022-08-04T05:39:43;2.97;;;2.88;;
71172;SDS011;58875;51.996;4.504;2022-08-04T05:42:21;2.88;;;2.74;;
71172;SDS011;58875;51.996;4.504;2022-08-04T05:44:48;3.20;;;3.01;;
71172;SDS011;58875;51.996;4.504;2022-08-04T05:47:15;3.02;;;2.87;;
71172;SDS011;58875;51.996;4.504;2022-08-04T05:49:41;2.97;;;2.83;;
71172;SDS011;58875;51.996;4.504;2022-08-04T05:52:09;2.90;;;2.78;;
71172;SDS011;58875;51.996;4.504;2022-08-04T05:54:36;2.84;;;2.74;;
71172;SDS011;58875;51.996;4.504;2022-08-04T05:57:04;2.83;;;2.76;;
71172;SDS011;58875;51.996;4.504;2022-08-04T05:59:32;2.87;;;2.81;;
71172;SDS011;58875;51.996;4.504;2022-08-04T06:02:03;2.71;;;2.67;;
71172;SDS011;58875;51.996;4.504;2022-08-04T06:04:36;2.75;;;2.71;;
71172;SDS011;58875;51.996;4.504;2022-08-04T06:07:04;2.81;;;2.79;;
71172;SDS011;58875;51.996;4.504;2022-08-04T06:09:31;2.72;;;2.72;;
71172;SDS011;58875;51.996;4.504;2022-08-04T06:11:59;2.70;;;2.69;;
71172;SDS011;58875;51.996;4.504;2022-08-04T06:14:29;2.66;;;2.65;;
71172;SDS011;58875;51.996;4.504;2022-08-04T06:17:02;2.53;;;2.52;;
71172;SDS011;58875;51.996;4.504;2022-08-04T06:19:32;2.71;;;2.71;;
71172;SDS011;58875;51.996;4.504;2022-08-04T06:22:03;2.88;;;2.88;;
71172;SDS011;58875;51.996;4.504;2022-08-04T06:24:32;2.70;;;2.70;;
71172;SDS011;58875;51.996;4.504;2022-08-04T06:27:02;2.66;;;2.66;;
71172;SDS011;58875;51.996;4.504;2022-08-04T06:29:30;2.70;;;2.69;;
71172;SDS011;58875;51.996;4.504;2022-08-04T06:32:03;2.82;;;2.79;;
71172;SDS011;58875;51.996;4.504;2022-08-04T06:34:51;2.65;;;2.61;;
71172;SDS011;58875;51.996;4.504;2022-08-04T06:37:20;2.81;;;2.74;;
71172;SDS011;58875;51.996;4.504;2022-08-04T06:39:48;2.91;;;2.88;;
71172;SDS011;58875;51.996;4.504;2022-08-04T06:42:19;2.88;;;2.83;;
71172;SDS011;58875;51.996;4.504;2022-08-04T06:44:48;2.78;;;2.77;;
71172;SDS011;58875;51.996;4.504;2022-08-04T06:47:18;2.94;;;2.89;;
71172;SDS011;58875;51.996;4.504;2022-08-04T06:49:47;3.08;;;3.05;;
71172;SDS011;58875;51.996;4.504;2022-08-04T06:52:16;2.76;;;2.76;;
71172;SDS011;58875;51.996;4.504;2022-08-04T06:54:44;2.80;;;2.80;;
71172;SDS011;58875;51.996;4.504;2022-08-04T06:57:19;3.10;;;3.10;;
71172;SDS011;58875;51.996;4.504;2022-08-04T07:00:08;2.94;;;2.91;;
71172;SDS011;58875;51.996;4.504;2022-08-04T07:02:45;3.08;;;3.08;;
71172;SDS011;58875;51.996;4.504;2022-08-04T07:05:15;3.22;;;3.22;;
71172;SDS011;58875;51.996;4.504;2022-08-04T07:07:42;3.30;;;3.30;;
71172;SDS011;58875;51.996;4.504;2022-08-04T07:10:09;3.11;;;3.11;;
71172;SDS011;58875;51.996;4.504;2022-08-04T07:12:36;3.00;;;3.00;;
71172;SDS011;58875;51.996;4.504;2022-08-04T07:15:04;3.15;;;3.14;;
71172;SDS011;58875;51.996;4.504;2022-08-04T07:17:31;3.22;;;3.22;;
71172;SDS011;58875;51.996;4.504;2022-08-04T07:20:07;2.89;;;2.89;;
71172;SDS011;58875;51.996;4.504;2022-08-04T07:22:33;2.92;;;2.92;;
71172;SDS011;58875;51.996;4.504;2022-08-04T07:25:00;2.63;;;2.63;;
71172;SDS011;58875;51.996;4.504;2022-08-04T07:27:26;2.67;;;2.67;;
71172;SDS011;58875;51.996;4.504;2022-08-04T07:29:52;2.65;;;2.65;;
71172;SDS011;58875;51.996;4.504;2022-08-04T07:32:24;2.63;;;2.63;;
71172;SDS011;58875;51.996;4.504;2022-08-04T07:34:51;2.47;;;2.47;;
71172;SDS011;58875;51.996;4.504;2022-08-04T07:37:18;2.49;;;2.49;;
71172;SDS011;58875;51.996;4.504;2022-08-04T07:39:44;2.74;;;2.74;;
71172;SDS011;58875;51.996;4.504;2022-08-04T07:42:10;2.48;;;2.48;;
71172;SDS011;58875;51.996;4.504;2022-08-04T07:44:37;2.53;;;2.53;;
71172;SDS011;58875;51.996;4.504;2022-08-04T07:47:06;2.61;;;2.61;;
71172;SDS011;58875;51.996;4.504;2022-08-04T07:49:32;2.62;;;2.62;;
71172;SDS011;58875;51.996;4.504;2022-08-04T07:51:58;2.73;;;2.73;;
71172;SDS011;58875;51.996;4.504;2022-08-04T07:54:26;2.64;;;2.64;;
71172;SDS011;58875;51.996;4.504;2022-08-04T07:56:52;2.69;;;2.69;;
71172;SDS011;58875;51.996;4.504;2022-08-04T07:59:18;2.44;;;2.44;;
71172;SDS011;58875;51.996;4.504;2022-08-04T08:01:44;2.61;;;2.61;;
71172;SDS011;58875;51.996;4.504;2022-08-04T08:04:11;2.69;;;2.69;;
71172;SDS011;58875;51.996;4.504;2022-08-04T08:06:41;2.55;;;2.55;;
71172;SDS011;58875;51.996;4.504;2022-08-04T08:09:14;2.58;;;2.58;;
71172;SDS011;58875;51.996;4.504;2022-08-04T08:11:46;2.60;;;2.60;;
71172;SDS011;58875;51.996;4.504;2022-08-04T08:14:14;2.75;;;2.75;;
71172;SDS011;58875;51.996;4.504;2022-08-04T08:16:40;2.75;;;2.75;;
71172;SDS011;58875;51.996;4.504;2022-08-04T08:19:07;2.68;;;2.68;;
71172;SDS011;58875;51.996;4.504;2022-08-04T08:21:32;2.68;;;2.68;;
71172;SDS011;58875;51.996;4.504;2022-08-04T08:23:59;2.47;;;2.47;;
71172;SDS011;58875;51.996;4.504;2022-08-04T08:26:25;2.60;;;2.60;;
71172;SDS011;58875;51.996;4.504;2022-08-04T08:28:51;2.77;;;2.77;;
71172;SDS011;58875;51.996;4.504;2022-08-04T08:31:17;2.55;;;2.55;;
71172;SDS011;58875;51.996;4.504;2022-08-04T08:33:43;2.61;;;2.61;;
71172;SDS011;58875;51.996;4.504;2022-08-04T08:47:32;2.45;;;2.45;;
71172;SDS011;58875;51.996;4.504;2022-08-04T09:01:00;2.51;;;2.51;;
71172;SDS011;58875;51.996;4.504;2022-08-04T09:06:36;2.35;;;2.35;;
71172;SDS011;58875;51.996;4.504;2022-08-04T09:12:14;2.05;;;2.05;;
71172;SDS011;58875;51.996;4.504;2022-08-04T09:14:51;2.19;;;2.19;;
71172;SDS011;58875;51.996;4.504;2022-08-04T09:17:51;2.25;;;2.25;;
71172;SDS011;58875;51.996;4.504;2022-08-04T09:28:26;2.31;;;2.31;;
71172;SDS011;58875;51.996;4.504;2022-08-04T09:31:05;2.16;;;2.16;;
71172;SDS011;58875;51.996;4.504;2022-08-04T09:36:28;2.13;;;2.13;;
71172;SDS011;58875;51.996;4.504;2022-08-04T09:44:14;2.01;;;2.01;;
71172;SDS011;58875;51.996;4.504;2022-08-04T09:47:08;2.22;;;2.22;;
71172;SDS011;58875;51.996;4.504;2022-08-04T09:52:46;2.19;;;2.19;;
71172;SDS011;58875;51.996;4.504;2022-08-04T09:58:10;2.11;;;2.11;;
71172;SDS011;58875;51.996;4.504;2022-08-04T10:00:50;2.24;;;2.24;;
71172;SDS011;58875;51.996;4.504;2022-08-04T10:03:26;2.08;;;2.08;;
71172;SDS011;58875;51.996;4.504;2022-08-04T10:06:04;2.24;;;2.24;;
71172;SDS011;58875;51.996;4.504;2022-08-04T10:14:36;2.15;;;2.15;;
71172;SDS011;58875;51.996;4.504;2022-08-04T10:23:14;2.10;;;2.10;;
71172;SDS011;58875;51.996;4.504;2022-08-04T10:28:37;2.10;;;2.10;;
71172;SDS011;58875;51.996;4.504;2022-08-04T10:31:09;2.05;;;2.05;;
71172;SDS011;58875;51.996;4.504;2022-08-04T10:33:48;2.15;;;2.15;;
71172;SDS011;58875;51.996;4.504;2022-08-04T10:36:21;2.34;;;2.34;;
71172;SDS011;58875;51.996;4.504;2022-08-04T10:38:56;2.29;;;2.29;;
71172;SDS011;58875;51.996;4.504;2022-08-04T10:47:21;2.38;;;2.38;;
71172;SDS011;58875;51.996;4.504;2022-08-04T10:49:55;2.18;;;2.18;;
71172;SDS011;58875;51.996;4.504;2022-08-04T11:00:32;2.15;;;2.15;;
71172;SDS011;58875;51.996;4.504;2022-08-04T11:08:32;2.33;;;2.33;;
71172;SDS011;58875;51.996;4.504;2022-08-04T11:11:04;2.45;;;2.45;;
71172;SDS011;58875;51.996;4.504;2022-08-04T11:13:46;2.35;;;2.35;;
71172;SDS011;58875;51.996;4.504;2022-08-04T11:16:20;2.22;;;2.22;;
71172;SDS011;58875;51.996;4.504;2022-08-04T11:21:55;2.21;;;2.21;;
71172;SDS011;58875;51.996;4.504;2022-08-04T11:30:13;2.28;;;2.28;;
71172;SDS011;58875;51.996;4.504;2022-08-04T11:35:43;2.33;;;2.33;;
71172;SDS011;58875;51.996;4.504;2022-08-04T11:44:25;2.27;;;2.27;;
71172;SDS011;58875;51.996;4.504;2022-08-04T11:47:03;2.44;;;2.44;;
71172;SDS011;58875;51.996;4.504;2022-08-04T11:49:39;2.21;;;2.21;;
71172;SDS011;58875;51.996;4.504;2022-08-04T11:52:11;2.18;;;2.18;;
71172;SDS011;58875;51.996;4.504;2022-08-04T11:54:39;2.10;;;2.10;;
71172;SDS011;58875;51.996;4.504;2022-08-04T11:57:08;2.05;;;2.05;;
71172;SDS011;58875;51.996;4.504;2022-08-04T11:59:35;2.09;;;2.09;;
71172;SDS011;58875;51.996;4.504;2022-08-04T12:05:07;2.14;;;2.14;;
71172;SDS011;58875;51.996;4.504;2022-08-04T12:13:18;1.93;;;1.93;;
71172;SDS011;58875;51.996;4.504;2022-08-04T12:18:54;1.91;;;1.91;;
71172;SDS011;58875;51.996;4.504;2022-08-04T12:21:38;1.84;;;1.84;;
71172;SDS011;58875;51.996;4.504;2022-08-04T12:24:15;1.82;;;1.82;;
71172;SDS011;58875;51.996;4.504;2022-08-04T12:27:10;1.86;;;1.86;;
71172;SDS011;58875;51.996;4.504;2022-08-04T12:29:39;1.90;;;1.90;;
71172;SDS011;58875;51.996;4.504;2022-08-04T12:40:18;2.05;;;2.05;;
71172;SDS011;58875;51.996;4.504;2022-08-04T12:42:54;2.13;;;2.13;;
71172;SDS011;58875;51.996;4.504;2022-08-04T12:45:26;2.25;;;2.25;;
71172;SDS011;58875;51.996;4.504;2022-08-04T12:47:56;2.05;;;2.05;;
71172;SDS011;58875;51.996;4.504;2022-08-04T12:50:23;2.03;;;2.03;;
71172;SDS011;58875;51.996;4.504;2022-08-04T12:52:55;2.11;;;2.11;;
71172;SDS011;58875;51.996;4.504;2022-08-04T12:55:26;1.94;;;1.94;;
71172;SDS011;58875;51.996;4.504;2022-08-04T12:57:54;2.02;;;2.02;;
71172;SDS011;58875;51.996;4.504;2022-08-04T13:00:23;2.00;;;2.00;;
71172;SDS011;58875;51.996;4.504;2022-08-04T13:02:51;2.10;;;2.10;;
71172;SDS011;58875;51.996;4.504;2022-08-04T13:05:18;2.18;;;2.18;;
71172;SDS011;58875;51.996;4.504;2022-08-04T13:07:47;2.08;;;2.08;;
71172;SDS011;58875;51.996;4.504;2022-08-04T13:10:16;2.13;;;2.13;;
71172;SDS011;58875;51.996;4.504;2022-08-04T13:12:58;2.20;;;2.20;;
71172;SDS011;58875;51.996;4.504;2022-08-04T13:15:25;2.39;;;2.39;;
71172;SDS011;58875;51.996;4.504;2022-08-04T13:20:43;2.30;;;2.30;;
71172;SDS011;58875;51.996;4.504;2022-08-04T13:23:10;2.10;;;2.10;;
71172;SDS011;58875;51.996;4.504;2022-08-04T13:25:44;2.37;;;2.37;;
71172;SDS011;58875;51.996;4.504;2022-08-04T13:28:23;2.44;;;2.44;;
71172;SDS011;58875;51.996;4.504;2022-08-04T13:30:54;2.49;;;2.49;;
71172;SDS011;58875;51.996;4.504;2022-08-04T13:33:27;2.54;;;2.54;;
71172;SDS011;58875;51.996;4.504;2022-08-04T13:35:56;2.58;;;2.58;;
71172;SDS011;58875;51.996;4.504;2022-08-04T13:38:24;2.42;;;2.42;;
71172;SDS011;58875;51.996;4.504;2022-08-04T13:40:52;2.55;;;2.55;;
71172;SDS011;58875;51.996;4.504;2022-08-04T13:43:33;2.46;;;2.46;;
71172;SDS011;58875;51.996;4.504;2022-08-04T13:46:07;2.58;;;2.58;;
71172;SDS011;58875;51.996;4.504;2022-08-04T13:48:42;2.37;;;2.37;;
71172;SDS011;58875;51.996;4.504;2022-08-04T13:51:14;2.30;;;2.30;;
71172;SDS011;58875;51.996;4.504;2022-08-04T13:53:43;2.50;;;2.50;;
71172;SDS011;58875;51.996;4.504;2022-08-04T13:56:09;2.28;;;2.28;;
71172;SDS011;58875;51.996;4.504;2022-08-04T13:58:42;2.57;;;2.57;;
71172;SDS011;58875;51.996;4.504;2022-08-04T14:01:19;2.36;;;2.36;;
71172;SDS011;58875;51.996;4.504;2022-08-04T14:09:14;2.15;;;2.15;;
71172;SDS011;58875;51.996;4.504;2022-08-04T14:11:45;2.19;;;2.19;;
71172;SDS011;58875;51.996;4.504;2022-08-04T14:14:14;2.20;;;2.20;;
71172;SDS011;58875;51.996;4.504;2022-08-04T14:19:19;2.06;;;2.06;;
71172;SDS011;58875;51.996;4.504;2022-08-04T14:21:45;2.27;;;2.27;;
71172;SDS011;58875;51.996;4.504;2022-08-04T14:24:12;2.27;;;2.27;;
71172;SDS011;58875;51.996;4.504;2022-08-04T14:26:52;2.44;;;2.44;;
71172;SDS011;58875;51.996;4.504;2022-08-04T14:29:24;2.43;;;2.43;;
71172;SDS011;58875;51.996;4.504;2022-08-04T14:32:02;2.18;;;2.18;;
71172;SDS011;58875;51.996;4.504;2022-08-04T14:34:38;2.06;;;2.06;;
71172;SDS011;58875;51.996;4.504;2022-08-04T14:37:05;2.13;;;2.13;;
71172;SDS011;58875;51.996;4.504;2022-08-04T14:42:03;2.49;;;2.49;;
71172;SDS011;58875;51.996;4.504;2022-08-04T14:44:29;2.27;;;2.27;;
71172;SDS011;58875;51.996;4.504;2022-08-04T14:46:55;2.13;;;2.13;;
71172;SDS011;58875;51.996;4.504;2022-08-04T14:49:23;2.15;;;2.15;;
71172;SDS011;58875;51.996;4.504;2022-08-04T14:51:53;2.24;;;2.24;;
71172;SDS011;58875;51.996;4.504;2022-08-04T14:54:29;2.32;;;2.32;;
71172;SDS011;58875;51.996;4.504;2022-08-04T14:56:57;2.08;;;2.08;;
71172;SDS011;58875;51.996;4.504;2022-08-04T14:59:39;2.07;;;2.07;;
71172;SDS011;58875;51.996;4.504;2022-08-04T15:02:09;2.05;;;2.05;;
71172;SDS011;58875;51.996;4.504;2022-08-04T15:04:35;2.22;;;2.22;;
71172;SDS011;58875;51.996;4.504;2022-08-04T15:07:07;2.32;;;2.32;;
71172;SDS011;58875;51.996;4.504;2022-08-04T15:09:34;2.18;;;2.18;;
71172;SDS011;58875;51.996;4.504;2022-08-04T15:12:00;2.31;;;2.31;;
71172;SDS011;58875;51.996;4.504;2022-08-04T15:14:28;2.08;;;2.08;;
71172;SDS011;58875;51.996;4.504;2022-08-04T15:16:54;2.11;;;2.11;;
71172;SDS011;58875;51.996;4.504;2022-08-04T15:19:21;2.09;;;2.09;;
71172;SDS011;58875;51.996;4.504;2022-08-04T15:21:47;2.18;;;2.18;;
71172;SDS011;58875;51.996;4.504;2022-08-04T15:24:13;2.35;;;2.35;;
71172;SDS011;58875;51.996;4.504;2022-08-04T15:26:51;2.33;;;2.33;;
71172;SDS011;58875;51.996;4.504;2022-08-04T15:29:27;2.10;;;2.10;;
71172;SDS011;58875;51.996;4.504;2022-08-04T15:31:56;2.26;;;2.26;;
71172;SDS011;58875;51.996;4.504;2022-08-04T15:34:42;2.19;;;2.19;;
71172;SDS011;58875;51.996;4.504;2022-08-04T15:40:13;2.28;;;2.28;;
71172;SDS011;58875;51.996;4.504;2022-08-04T15:42:47;2.09;;;2.09;;
71172;SDS011;58875;51.996;4.504;2022-08-04T15:45:24;2.13;;;2.13;;
71172;SDS011;58875;51.996;4.504;2022-08-04T15:50:28;1.93;;;1.93;;
71172;SDS011;58875;51.996;4.504;2022-08-04T16:05:58;2.12;;;2.12;;
71172;SDS011;58875;51.996;4.504;2022-08-04T16:21:56;2.71;;;2.71;;
71172;SDS011;58875;51.996;4.504;2022-08-04T16:24:28;2.34;;;2.34;;
71172;SDS011;58875;51.996;4.504;2022-08-04T16:26:59;2.18;;;2.18;;
71172;SDS011;58875;51.996;4.504;2022-08-04T16:32:15;2.28;;;2.28;;
71172;SDS011;58875;51.996;4.504;2022-08-04T16:35:16;2.09;;;2.09;;
71172;SDS011;58875;51.996;4.504;2022-08-04T16:37:45;2.45;;;2.45;;
71172;SDS011;58875;51.996;4.504;2022-08-04T16:40:33;2.65;;;2.65;;
71172;SDS011;58875;51.996;4.504;2022-08-04T16:43:00;3.48;;;3.48;;
71172;SDS011;58875;51.996;4.504;2022-08-04T16:48:19;2.36;;;2.36;;
71172;SDS011;58875;51.996;4.504;2022-08-04T16:51:02;2.24;;;2.24;;
71172;SDS011;58875;51.996;4.504;2022-08-04T16:53:39;2.42;;;2.42;;
71172;SDS011;58875;51.996;4.504;2022-08-04T16:56:10;2.57;;;2.57;;
71172;SDS011;58875;51.996;4.504;2022-08-04T16:58:38;2.24;;;2.24;;
71172;SDS011;58875;51.996;4.504;2022-08-04T17:01:08;2.24;;;2.24;;
71172;SDS011;58875;51.996;4.504;2022-08-04T17:03:36;2.28;;;2.28;;
71172;SDS011;58875;51.996;4.504;2022-08-04T17:08:38;2.17;;;2.17;;
71172;SDS011;58875;51.996;4.504;2022-08-04T17:11:05;2.10;;;2.10;;
71172;SDS011;58875;51.996;4.504;2022-08-04T17:13:34;2.16;;;2.16;;
71172;SDS011;58875;51.996;4.504;2022-08-04T17:16:03;2.25;;;2.25;;
71172;SDS011;58875;51.996;4.504;2022-08-04T17:18:39;2.26;;;2.26;;
71172;SDS011;58875;51.996;4.504;2022-08-04T17:21:11;2.24;;;2.24;;
71172;SDS011;58875;51.996;4.504;2022-08-04T17:23:46;2.21;;;2.21;;
71172;SDS011;58875;51.996;4.504;2022-08-04T17:26:19;2.26;;;2.26;;
71172;SDS011;58875;51.996;4.504;2022-08-04T17:28:51;2.20;;;2.20;;
71172;SDS011;58875;51.996;4.504;2022-08-04T17:31:20;2.25;;;2.25;;
71172;SDS011;58875;51.996;4.504;2022-08-04T17:33:51;2.85;;;2.85;;
71172;SDS011;58875;51.996;4.504;2022-08-04T17:36:22;3.32;;;3.32;;
71172;SDS011;58875;51.996;4.504;2022-08-04T17:38:51;7.26;;;7.22;;
71172;SDS011;58875;51.996;4.504;2022-08-04T17:41:19;10.65;;;10.54;;
71172;SDS011;58875;51.996;4.504;2022-08-04T17:43:51;11.06;;;10.75;;
71172;SDS011;58875;51.996;4.504;2022-08-04T17:49:00;8.25;;;8.25;;
71172;SDS011;58875;51.996;4.504;2022-08-04T17:51:46;10.09;;;10.09;;
71172;SDS011;58875;51.996;4.504;2022-08-04T17:54:16;7.70;;;7.70;;
71172;SDS011;58875;51.996;4.504;2022-08-04T17:56:53;5.41;;;5.41;;
71172;SDS011;58875;51.996;4.504;2022-08-04T17:59:22;4.94;;;4.94;;
71172;SDS011;58875;51.996;4.504;2022-08-04T18:01:58;5.83;;;5.78;;
71172;SDS011;58875;51.996;4.504;2022-08-04T18:12:10;5.77;;;5.60;;
71172;SDS011;58875;51.996;4.504;2022-08-04T18:15:21;3.05;;;3.04;;
71172;SDS011;58875;51.996;4.504;2022-08-04T18:17:49;2.45;;;2.45;;
71172;SDS011;58875;51.996;4.504;2022-08-04T18:20:17;2.26;;;2.26;;
71172;SDS011;58875;51.996;4.504;2022-08-04T18:22:47;2.36;;;2.36;;
71172;SDS011;58875;51.996;4.504;2022-08-04T18:25:15;2.43;;;2.43;;
71172;SDS011;58875;51.996;4.504;2022-08-04T18:27:59;2.50;;;2.50;;
71172;SDS011;58875;51.996;4.504;2022-08-04T18:30:25;2.57;;;2.57;;
71172;SDS011;58875;51.996;4.504;2022-08-04T18:32:53;2.65;;;2.65;;
71172;SDS011;58875;51.996;4.504;2022-08-04T18:35:22;2.83;;;2.83;;
71172;SDS011;58875;51.996;4.504;2022-08-04T18:37:48;2.53;;;2.53;;
71172;SDS011;58875;51.996;4.504;2022-08-04T18:40:17;2.66;;;2.66;;
71172;SDS011;58875;51.996;4.504;2022-08-04T18:42:43;2.73;;;2.73;;
71172;SDS011;58875;51.996;4.504;2022-08-04T18:45:11;2.66;;;2.66;;
71172;SDS011;58875;51.996;4.504;2022-08-04T18:47:38;2.85;;;2.85;;
71172;SDS011;58875;51.996;4.504;2022-08-04T18:50:05;2.71;;;2.71;;
71172;SDS011;58875;51.996;4.504;2022-08-04T18:52:39;2.65;;;2.65;;
71172;SDS011;58875;51.996;4.504;2022-08-04T18:55:04;3.00;;;3.00;;
71172;SDS011;58875;51.996;4.504;2022-08-04T18:57:30;3.31;;;3.31;;
71172;SDS011;58875;51.996;4.504;2022-08-04T18:59:56;3.47;;;3.47;;
71172;SDS011;58875;51.996;4.504;2022-08-04T19:02:25;3.33;;;3.33;;
71172;SDS011;58875;51.996;4.504;2022-08-04T19:04:51;3.44;;;3.44;;
71172;SDS011;58875;51.996;4.504;2022-08-04T19:07:16;3.30;;;3.30;;
71172;SDS011;58875;51.996;4.504;2022-08-04T19:09:44;3.31;;;3.31;;
71172;SDS011;58875;51.996;4.504;2022-08-04T19:12:10;3.00;;;3.00;;
71172;SDS011;58875;51.996;4.504;2022-08-04T19:14:36;3.26;;;3.26;;
71172;SDS011;58875;51.996;4.504;2022-08-04T19:17:02;3.21;;;3.21;;
71172;SDS011;58875;51.996;4.504;2022-08-04T19:19:28;3.30;;;3.30;;
71172;SDS011;58875;51.996;4.504;2022-08-04T19:21:54;3.53;;;3.53;;
71172;SDS011;58875;51.996;4.504;2022-08-04T19:24:21;3.27;;;3.27;;
71172;SDS011;58875;51.996;4.504;2022-08-04T19:26:46;3.20;;;3.20;;
71172;SDS011;58875;51.996;4.504;2022-08-04T19:29:14;2.93;;;2.93;;
71172;SDS011;58875;51.996;4.504;2022-08-04T19:31:40;3.15;;;3.15;;
71172;SDS011;58875;51.996;4.504;2022-08-04T19:34:06;3.17;;;3.17;;
71172;SDS011;58875;51.996;4.504;2022-08-04T19:36:34;3.21;;;3.21;;
71172;SDS011;58875;51.996;4.504;2022-08-04T19:39:01;3.08;;;3.08;;
71172;SDS011;58875;51.996;4.504;2022-08-04T19:41:30;3.13;;;3.13;;
71172;SDS011;58875;51.996;4.504;2022-08-04T19:44:05;3.00;;;3.00;;
71172;SDS011;58875;51.996;4.504;2022-08-04T19:46:31;3.33;;;3.33;;
71172;SDS011;58875;51.996;4.504;2022-08-04T19:48:57;3.48;;;3.48;;
71172;SDS011;58875;51.996;4.504;2022-08-04T19:51:23;3.40;;;3.40;;
71172;SDS011;58875;51.996;4.504;2022-08-04T19:53:49;3.47;;;3.47;;
71172;SDS011;58875;51.996;4.504;2022-08-04T19:56:14;3.65;;;3.65;;
71172;SDS011;58875;51.996;4.504;2022-08-04T19:58:41;3.51;;;3.51;;
71172;SDS011;58875;51.996;4.504;2022-08-04T20:01:08;3.38;;;3.38;;
71172;SDS011;58875;51.996;4.504;2022-08-04T20:03:34;3.41;;;3.41;;
71172;SDS011;58875;51.996;4.504;2022-08-04T20:05:59;3.83;;;3.83;;
71172;SDS011;58875;51.996;4.504;2022-08-04T20:08:28;3.58;;;3.58;;
71172;SDS011;58875;51.996;4.504;2022-08-04T20:10:53;3.82;;;3.82;;
71172;SDS011;58875;51.996;4.504;2022-08-04T20:13:20;3.73;;;3.73;;
71172;SDS011;58875;51.996;4.504;2022-08-04T20:15:46;3.94;;;3.94;;
71172;SDS011;58875;51.996;4.504;2022-08-04T20:18:12;3.78;;;3.78;;
71172;SDS011;58875;51.996;4.504;2022-08-04T20:20:38;4.21;;;4.21;;
71172;SDS011;58875;51.996;4.504;2022-08-04T20:23:04;4.24;;;4.24;;
71172;SDS011;58875;51.996;4.504;2022-08-04T20:25:29;4.05;;;4.05;;
71172;SDS011;58875;51.996;4.504;2022-08-04T20:27:55;4.45;;;4.45;;
71172;SDS011;58875;51.996;4.504;2022-08-04T20:30:21;4.15;;;4.15;;
71172;SDS011;58875;51.996;4.504;2022-08-04T20:32:49;4.35;;;4.35;;
71172;SDS011;58875;51.996;4.504;2022-08-04T20:35:15;4.46;;;4.46;;
71172;SDS011;58875;51.996;4.504;2022-08-04T20:37:41;4.30;;;4.30;;
71172;SDS011;58875;51.996;4.504;2022-08-04T20:40:07;4.42;;;4.42;;
71172;SDS011;58875;51.996;4.504;2022-08-04T20:42:35;4.55;;;4.55;;
71172;SDS011;58875;51.996;4.504;2022-08-04T20:45:01;3.97;;;3.97;;
71172;SDS011;58875;51.996;4.504;2022-08-04T20:47:27;4.25;;;4.25;;